createdAt,value
2016-11-11T00:00:17.959Z,18.23
2016-11-11T00:01:26.959Z,18.21
2016-11-11T00:02:35.655Z,18.21
2016-11-11T00:03:44.672Z,18.32
2016-11-11T00:04:53.679Z,18.2
2016-11-11T00:06:02.364Z,18.2
2016-11-11T00:07:11.686Z,18.18
2016-11-11T00:08:21.003Z,18.26
2016-11-11T00:09:30.597Z,18.25
2016-11-11T00:10:39.610Z,18.23
2016-11-11T00:11:48.633Z,18.21
2016-11-11T00:12:57.636Z,18.27
2016-11-11T00:14:06.696Z,18.32
2016-11-11T00:15:16.004Z,18.15
2016-11-11T00:16:25.001Z,18.27
2016-11-11T00:17:33.686Z,18.26
2016-11-11T00:18:42.704Z,18.2
2016-11-11T00:19:51.689Z,18.26
2016-11-11T00:21:00.373Z,18.3
2016-11-11T00:22:09.071Z,18.2
2016-11-11T00:23:18.063Z,18.27
2016-11-11T00:24:27.396Z,18.2
2016-11-11T00:25:36.999Z,18.17
2016-11-11T00:26:46.312Z,18.21
2016-11-11T00:27:55.607Z,18.23
2016-11-11T00:29:04.911Z,18.2
2016-11-11T00:30:14.225Z,18.2
2016-11-11T00:31:23.235Z,18.17
2016-11-11T00:32:32.232Z,18.2
2016-11-11T00:33:41.083Z,18.2
2016-11-11T00:34:50.075Z,18.25
2016-11-11T00:35:59.409Z,18.26
2016-11-11T00:37:08.399Z,18.26
2016-11-11T00:38:17.707Z,18.2
2016-11-11T00:39:27.113Z,18.25
2016-11-11T00:40:35.802Z,18.21
2016-11-11T00:41:44.791Z,18.18
2016-11-11T00:42:53.792Z,18.18
2016-11-11T00:44:02.789Z,18.18
2016-11-11T00:45:11.789Z,18.2
2016-11-11T00:46:20.469Z,18.21
2016-11-11T00:47:29.157Z,18.12
2016-11-11T00:48:38.156Z,18.29
2016-11-11T00:49:46.836Z,18.21
2016-11-11T00:50:55.987Z,18.2
2016-11-11T00:52:05.597Z,18.26
2016-11-11T00:53:14.603Z,18.21
2016-11-11T00:54:23.291Z,18.25
2016-11-11T00:55:32.593Z,18.2
2016-11-11T00:56:41.283Z,18.17
2016-11-11T00:57:49.976Z,18.15
2016-11-11T00:58:58.977Z,18.18
2016-11-11T01:00:07.974Z,18.11
2016-11-11T01:01:16.674Z,18.2
2016-11-11T01:02:25.978Z,18.18
2016-11-11T01:03:35.269Z,18.14
2016-11-11T01:04:44.270Z,18.21
2016-11-11T01:05:52.977Z,18.21
2016-11-11T01:07:02.283Z,18.18
2016-11-11T01:08:11.598Z,18.17
2016-11-11T01:09:21.191Z,18.11
2016-11-11T01:10:30.505Z,18.08
2016-11-11T01:11:39.816Z,18.08
2016-11-11T01:12:48.501Z,18.18
2016-11-11T01:13:57.962Z,18.14
2016-11-11T01:15:06.975Z,18.14
2016-11-11T01:16:16.588Z,18.08
2016-11-11T01:17:25.881Z,18.11
2016-11-11T01:18:34.570Z,18.14
2016-11-11T01:19:43.709Z,18.05
2016-11-11T01:20:52.435Z,18.18
2016-11-11T01:22:01.742Z,18.18
2016-11-11T01:23:11.036Z,18.21
2016-11-11T01:24:20.031Z,18.08
2016-11-11T01:25:28.861Z,18.18
2016-11-11T01:26:37.850Z,18.18
2016-11-11T01:27:46.855Z,18.14
2016-11-11T01:32:41.066Z,18.11
2016-11-11T01:33:50.371Z,18.21
2016-11-11T01:34:59.057Z,18.08
2016-11-11T01:36:07.757Z,18.11
2016-11-11T01:37:16.553Z,18.18
2016-11-11T01:38:25.856Z,18.21
2016-11-11T01:39:34.540Z,18.12
2016-11-11T01:40:43.848Z,18.15
2016-11-11T01:41:52.553Z,18.1
2016-11-11T01:43:01.852Z,18.17
2016-11-11T01:44:11.151Z,18.12
2016-11-11T01:45:19.835Z,18.17
2016-11-11T01:46:29.139Z,18.03
2016-11-11T01:47:38.461Z,18.15
2016-11-11T01:48:47.449Z,18.05
2016-11-11T01:49:56.446Z,18.1
2016-11-11T01:51:05.129Z,18.1
2016-11-11T01:52:13.823Z,18.17
2016-11-11T01:53:22.819Z,18.08
2016-11-11T01:54:31.496Z,18.11
2016-11-11T01:55:40.795Z,18.25
2016-11-11T01:56:49.481Z,18.18
2016-11-11T01:57:58.161Z,18.17
2016-11-11T01:59:07.157Z,18.18
2016-11-11T02:00:15.845Z,18.18
2016-11-11T02:01:24.836Z,18.17
2016-11-11T02:02:33.523Z,18.2
2016-11-11T02:03:43.131Z,18.18
2016-11-11T02:04:51.810Z,18.02
2016-11-11T02:06:00.486Z,18.07
2016-11-11T02:07:09.792Z,18.05
2016-11-11T02:08:18.788Z,18.05
2016-11-11T02:09:28.462Z,18.11
2016-11-11T02:10:37.440Z,18.1
2016-11-11T02:11:46.883Z,18.15
2016-11-11T02:12:55.875Z,18
2016-11-11T02:14:04.578Z,18.05
2016-11-11T02:15:13.579Z,18.03
2016-11-11T02:16:22.322Z,17.99
2016-11-11T02:17:31.958Z,18.1
2016-11-11T02:18:40.661Z,18.02
2016-11-11T02:19:49.968Z,18.08
2016-11-11T02:20:58.653Z,18.03
2016-11-11T02:22:07.349Z,18.05
2016-11-11T02:23:16.492Z,18.02
2016-11-11T02:24:25.495Z,18.12
2016-11-11T02:25:34.495Z,18.02
2016-11-11T02:26:43.513Z,18.11
2016-11-11T02:27:52.199Z,18
2016-11-11T02:29:01.819Z,18.02
2016-11-11T02:30:10.846Z,18.05
2016-11-11T02:31:19.532Z,18.05
2016-11-11T02:32:28.832Z,18.08
2016-11-11T02:33:37.521Z,17.99
2016-11-11T02:34:46.814Z,18.03
2016-11-11T02:35:55.802Z,18.05
2016-11-11T02:37:05.089Z,17.99
2016-11-11T02:38:14.108Z,18.03
2016-11-11T02:39:23.406Z,17.99
2016-11-11T02:40:32.698Z,17.99
2016-11-11T02:41:42.619Z,17.96
2016-11-11T02:42:51.294Z,17.95
2016-11-11T02:44:00.299Z,17.97
2016-11-11T02:45:08.971Z,17.95
2016-11-11T02:46:18.592Z,18.05
2016-11-11T02:47:27.334Z,18
2016-11-11T02:48:36.015Z,18.05
2016-11-11T02:49:45.004Z,17.99
2016-11-11T02:50:53.993Z,17.93
2016-11-11T02:52:02.990Z,18.07
2016-11-11T02:53:12.302Z,17.97
2016-11-11T02:54:21.595Z,17.99
2016-11-11T02:55:30.284Z,17.96
2016-11-11T02:56:38.966Z,17.96
2016-11-11T02:57:47.655Z,17.96
2016-11-11T02:58:56.652Z,17.97
2016-11-11T03:00:05.341Z,17.95
2016-11-11T03:01:14.657Z,18.03
2016-11-11T03:02:23.345Z,17.99
2016-11-11T03:03:32.036Z,18
2016-11-11T03:04:41.013Z,17.97
2016-11-11T03:05:50.013Z,18.07
2016-11-11T03:06:59.614Z,18
2016-11-11T03:08:08.328Z,17.9
2016-11-11T03:09:17.409Z,17.9
2016-11-11T03:10:26.399Z,17.96
2016-11-11T03:11:35.124Z,17.99
2016-11-11T03:12:43.803Z,18.02
2016-11-11T03:13:53.108Z,17.97
2016-11-11T03:15:01.940Z,18
2016-11-11T03:16:10.929Z,17.95
2016-11-11T03:17:19.946Z,17.92
2016-11-11T03:18:28.635Z,18.05
2016-11-11T03:19:37.937Z,17.97
2016-11-11T03:20:46.633Z,17.92
2016-11-11T03:21:55.685Z,17.96
2016-11-11T03:23:04.680Z,18
2016-11-11T03:24:13.380Z,17.97
2016-11-11T03:25:22.379Z,18.02
2016-11-11T03:26:31.063Z,17.99
2016-11-11T03:27:39.755Z,17.99
2016-11-11T03:28:48.769Z,17.99
2016-11-11T03:29:58.076Z,17.99
2016-11-11T03:31:07.074Z,17.96
2016-11-11T03:32:15.859Z,17.96
2016-11-11T03:33:24.553Z,18
2016-11-11T03:34:33.246Z,17.95
2016-11-11T03:35:42.648Z,17.97
2016-11-11T03:36:51.343Z,17.99
2016-11-11T03:38:00.345Z,17.96
2016-11-11T03:39:09.331Z,17.99
2016-11-11T03:40:18.932Z,17.95
2016-11-11T03:41:27.622Z,17.99
2016-11-11T03:42:36.626Z,17.97
2016-11-11T03:43:45.630Z,17.92
2016-11-11T03:44:54.630Z,17.99
2016-11-11T03:46:03.323Z,17.99
2016-11-11T03:47:12.316Z,17.96
2016-11-11T03:48:21.647Z,17.87
2016-11-11T03:49:30.643Z,17.96
2016-11-11T03:50:39.948Z,18.02
2016-11-11T03:51:49.249Z,17.97
2016-11-11T03:52:57.942Z,18
2016-11-11T03:54:06.627Z,17.99
2016-11-11T03:55:15.662Z,17.99
2016-11-11T03:56:25.328Z,17.96
2016-11-11T03:57:34.953Z,18
2016-11-11T03:58:43.955Z,18.02
2016-11-11T03:59:52.641Z,18
2016-11-11T04:01:02.264Z,17.9
2016-11-11T04:02:11.256Z,17.99
2016-11-11T04:03:20.244Z,17.96
2016-11-11T04:04:29.240Z,18.05
2016-11-11T04:05:38.229Z,18
2016-11-11T04:06:47.062Z,17.92
2016-11-11T04:07:56.670Z,17.97
2016-11-11T04:09:05.666Z,17.9
2016-11-11T04:10:15.001Z,18.02
2016-11-11T04:11:23.998Z,17.89
2016-11-11T04:12:33.013Z,18
2016-11-11T04:13:42.012Z,17.95
2016-11-11T04:14:51.327Z,18.07
2016-11-11T04:16:00.340Z,17.92
2016-11-11T04:17:09.039Z,17.89
2016-11-11T04:18:18.484Z,17.92
2016-11-11T04:19:27.477Z,17.92
2016-11-11T04:20:36.172Z,17.93
2016-11-11T04:21:45.171Z,17.96
2016-11-11T04:22:54.469Z,17.92
2016-11-11T04:24:03.618Z,17.92
2016-11-11T04:25:12.313Z,17.93
2016-11-11T04:26:21.625Z,17.9
2016-11-11T04:27:30.616Z,17.93
2016-11-11T04:28:39.297Z,17.96
2016-11-11T04:29:48.299Z,17.95
2016-11-11T04:30:57.596Z,17.97
2016-11-11T04:32:06.941Z,17.87
2016-11-11T04:33:15.940Z,17.87
2016-11-11T04:34:24.939Z,17.87
2016-11-11T04:35:33.779Z,17.87
2016-11-11T04:36:43.071Z,17.87
2016-11-11T04:37:51.752Z,17.9
2016-11-11T04:39:00.742Z,17.89
2016-11-11T04:40:10.047Z,17.95
2016-11-11T04:41:18.739Z,17.92
2016-11-11T04:42:28.045Z,17.86
2016-11-11T04:43:37.361Z,17.92
2016-11-11T04:44:46.036Z,17.9
2016-11-11T04:45:54.726Z,17.93
2016-11-11T04:47:04.335Z,17.86
2016-11-11T04:48:13.016Z,17.86
2016-11-11T04:49:21.698Z,17.79
2016-11-11T04:50:30.681Z,17.82
2016-11-11T04:51:39.675Z,17.82
2016-11-11T04:52:48.708Z,17.79
2016-11-11T04:53:57.710Z,17.81
2016-11-11T04:55:06.704Z,17.87
2016-11-11T04:56:15.384Z,17.78
2016-11-11T04:57:24.086Z,17.87
2016-11-11T04:58:32.940Z,17.86
2016-11-11T04:59:42.254Z,17.81
2016-11-11T05:00:51.560Z,17.86
2016-11-11T05:02:00.592Z,17.95
2016-11-11T05:03:09.601Z,17.9
2016-11-11T05:04:19.320Z,17.84
2016-11-11T05:05:28.309Z,17.84
2016-11-11T05:06:37.298Z,17.82
2016-11-11T05:07:46.602Z,17.82
2016-11-11T05:08:55.904Z,17.79
2016-11-11T05:10:04.695Z,17.81
2016-11-11T05:11:13.694Z,17.84
2016-11-11T05:12:22.682Z,17.87
2016-11-11T05:13:31.670Z,17.82
2016-11-11T05:14:40.666Z,17.72
2016-11-11T05:15:49.796Z,17.82
2016-11-11T05:16:58.533Z,17.84
2016-11-11T05:18:07.527Z,17.75
2016-11-11T05:19:16.227Z,17.82
2016-11-11T05:20:25.530Z,17.86
2016-11-11T05:21:35.130Z,17.75
2016-11-11T05:22:44.435Z,17.71
2016-11-11T05:23:53.735Z,17.74
2016-11-11T05:25:02.750Z,17.74
2016-11-11T05:26:11.749Z,17.71
2016-11-11T05:27:20.431Z,17.74
2016-11-11T05:28:29.417Z,17.75
2016-11-11T05:29:38.409Z,17.77
2016-11-11T05:30:47.706Z,17.71
2016-11-11T05:31:56.694Z,17.75
2016-11-11T05:33:06.296Z,17.78
2016-11-11T05:34:15.307Z,17.89
2016-11-11T05:35:23.987Z,17.78
2016-11-11T05:36:32.680Z,17.86
2016-11-11T05:37:41.365Z,17.79
2016-11-11T05:38:50.361Z,17.7
2016-11-11T05:39:59.040Z,17.77
2016-11-11T05:41:08.333Z,17.75
2016-11-11T05:42:17.019Z,17.72
2016-11-11T05:43:26.010Z,17.79
2016-11-11T05:44:34.693Z,17.75
2016-11-11T05:45:44.619Z,17.72
2016-11-11T05:46:53.315Z,17.68
2016-11-11T05:48:02.013Z,17.74
2016-11-11T05:49:11.004Z,17.74
2016-11-11T05:50:19.709Z,17.78
2016-11-11T05:51:28.737Z,17.75
2016-11-11T05:52:37.424Z,17.9
2016-11-11T05:53:46.730Z,17.75
2016-11-11T05:54:55.731Z,17.79
2016-11-11T05:56:04.509Z,17.71
2016-11-11T05:57:14.428Z,17.72
2016-11-11T05:58:23.424Z,17.71
2016-11-11T05:59:32.103Z,17.74
2016-11-11T06:00:41.091Z,17.71
2016-11-11T06:01:50.708Z,17.79
2016-11-11T06:02:59.963Z,17.78
2016-11-11T06:04:09.335Z,17.79
2016-11-11T06:05:18.913Z,17.74
2016-11-11T06:06:28.425Z,17.72
2016-11-11T06:07:37.924Z,17.7
2016-11-11T06:08:47.044Z,17.75
2016-11-11T06:09:56.462Z,17.75
2016-11-11T06:11:06.476Z,17.74
2016-11-11T06:12:16.284Z,17.72
2016-11-11T06:13:25.451Z,17.72
2016-11-11T06:14:34.507Z,17.74
2016-11-11T06:15:44.132Z,17.71
2016-11-11T06:16:53.970Z,17.68
2016-11-11T06:18:03.444Z,17.68
2016-11-11T06:19:12.812Z,17.68
2016-11-11T06:20:21.960Z,17.64
2016-11-11T06:21:31.872Z,17.7
2016-11-11T06:22:41.064Z,17.71
2016-11-11T06:23:50.067Z,17.68
2016-11-11T06:24:59.558Z,17.77
2016-11-11T06:26:08.866Z,17.86
2016-11-11T06:27:18.274Z,17.87
2016-11-11T06:28:27.435Z,18.03
2016-11-11T06:29:36.569Z,18.18
2016-11-11T06:30:45.971Z,18.18
2016-11-11T06:31:55.284Z,18.32
2016-11-11T06:33:04.676Z,18.36
2016-11-11T06:34:14.204Z,18.48
2016-11-11T06:35:23.168Z,18.58
2016-11-11T06:36:32.584Z,18.69
2016-11-11T06:37:41.951Z,18.8
2016-11-11T06:38:51.170Z,18.85
2016-11-11T06:40:00.293Z,18.91
2016-11-11T06:41:09.896Z,18.94
2016-11-11T06:42:19.756Z,19.04
2016-11-11T06:43:29.742Z,18.99
2016-11-11T06:44:39.048Z,19.07
2016-11-11T06:45:48.846Z,19.04
2016-11-11T06:46:58.042Z,19.14
2016-11-11T06:48:08.564Z,19.19
2016-11-11T06:49:18.000Z,19.13
2016-11-11T06:50:26.985Z,19.19
2016-11-11T06:51:35.982Z,19.32
2016-11-11T06:52:44.987Z,19.25
2016-11-11T06:53:54.655Z,19.28
2016-11-11T06:55:04.236Z,19.31
2016-11-11T06:56:13.966Z,19.25
2016-11-11T06:57:23.650Z,19.39
2016-11-11T06:58:33.010Z,19.4
2016-11-11T06:59:43.393Z,19.33
2016-11-11T07:00:52.329Z,19.47
2016-11-11T07:02:01.661Z,19.47
2016-11-11T07:03:11.264Z,19.43
2016-11-11T07:04:19.959Z,19.39
2016-11-11T07:05:28.643Z,19.5
2016-11-11T07:06:37.946Z,19.59
2016-11-11T07:07:46.933Z,19.55
2016-11-11T07:08:55.622Z,19.59
2016-11-11T07:10:04.317Z,19.63
2016-11-11T07:11:13.302Z,19.66
2016-11-11T07:12:22.601Z,19.76
2016-11-11T07:13:32.220Z,19.76
2016-11-11T07:14:40.900Z,19.81
2016-11-11T07:15:50.503Z,19.74
2016-11-11T07:16:59.637Z,19.81
2016-11-11T07:18:08.628Z,19.86
2016-11-11T07:19:17.312Z,19.98
2016-11-11T07:20:26.061Z,19.99
2016-11-11T07:21:35.090Z,20.08
2016-11-11T07:22:44.129Z,20.05
2016-11-11T07:23:52.821Z,20.03
2016-11-11T07:25:01.534Z,20.05
2016-11-11T07:26:10.535Z,19.99
2016-11-11T07:27:19.534Z,19.96
2016-11-11T07:28:28.528Z,20.01
2016-11-11T07:29:37.535Z,19.99
2016-11-11T07:30:46.536Z,19.95
2016-11-11T07:31:55.234Z,20.01
2016-11-11T07:33:04.572Z,19.91
2016-11-11T07:34:13.675Z,19.98
2016-11-11T07:35:22.403Z,19.99
2016-11-11T07:36:31.712Z,19.94
2016-11-11T07:37:41.035Z,19.95
2016-11-11T07:38:50.034Z,20.02
2016-11-11T07:39:59.030Z,20.02
2016-11-11T07:41:08.035Z,19.88
2016-11-11T07:42:17.641Z,19.88
2016-11-11T07:43:26.952Z,20.18
2016-11-11T07:44:35.947Z,20.73
2016-11-11T07:45:44.927Z,20.38
2016-11-11T07:46:54.265Z,20.16
2016-11-11T07:48:03.918Z,20.06
2016-11-11T07:49:12.921Z,20.05
2016-11-11T07:50:21.903Z,20.03
2016-11-11T07:51:31.205Z,19.99
2016-11-11T07:52:40.208Z,19.96
2016-11-11T07:53:49.201Z,20.02
2016-11-11T07:54:58.508Z,19.95
2016-11-11T07:56:07.816Z,19.95
2016-11-11T07:57:17.116Z,19.86
2016-11-11T07:58:25.802Z,19.91
2016-11-11T07:59:35.106Z,19.86
2016-11-11T08:00:44.412Z,19.76
2016-11-11T08:01:53.104Z,19.81
2016-11-11T08:03:01.798Z,19.74
2016-11-11T08:04:10.495Z,19.66
2016-11-11T08:05:19.797Z,19.68
2016-11-11T08:06:29.099Z,19.65
2016-11-11T08:07:38.400Z,19.63
2016-11-11T08:08:47.715Z,19.65
2016-11-11T08:09:57.011Z,19.55
2016-11-11T08:11:06.015Z,19.61
2016-11-11T08:12:15.004Z,19.59
2016-11-11T08:13:23.996Z,19.58
2016-11-11T08:14:33.301Z,19.51
2016-11-11T08:15:42.303Z,19.58
2016-11-11T08:16:51.303Z,19.46
2016-11-11T08:18:00.312Z,19.5
2016-11-11T08:19:09.328Z,19.4
2016-11-11T08:20:18.124Z,19.44
2016-11-11T08:21:26.841Z,19.47
2016-11-11T08:22:35.539Z,19.47
2016-11-11T08:23:44.228Z,19.4
2016-11-11T08:24:53.237Z,19.33
2016-11-11T08:26:02.244Z,19.33
2016-11-11T08:27:11.263Z,19.43
2016-11-11T08:28:19.962Z,19.29
2016-11-11T08:29:28.662Z,19.29
2016-11-11T08:30:37.661Z,19.28
2016-11-11T08:31:46.754Z,19.26
2016-11-11T08:32:56.066Z,19.25
2016-11-11T08:34:04.777Z,19.31
2016-11-11T08:35:13.775Z,19.28
2016-11-11T08:36:22.456Z,19.21
2016-11-11T08:37:31.760Z,19.13
2016-11-11T08:38:40.776Z,19.14
2016-11-11T08:39:49.473Z,19.04
2016-11-11T08:40:58.184Z,18.99
2016-11-11T08:42:07.177Z,19.08
2016-11-11T08:43:16.592Z,19.07
2016-11-11T08:44:25.283Z,19
2016-11-11T08:45:34.611Z,19
2016-11-11T08:46:44.234Z,19.02
2016-11-11T08:47:53.263Z,19.04
2016-11-11T08:49:02.250Z,18.98
2016-11-11T08:50:11.278Z,18.98
2016-11-11T08:51:19.980Z,18.95
2016-11-11T08:52:28.993Z,18.92
2016-11-11T08:53:38.011Z,18.8
2016-11-11T08:54:47.379Z,18.94
2016-11-11T08:55:56.395Z,18.95
2016-11-11T08:57:05.412Z,18.91
2016-11-11T08:58:14.431Z,18.95
2016-11-11T08:59:23.494Z,18.9
2016-11-11T09:00:32.924Z,18.8
2016-11-11T09:01:42.215Z,18.87
2016-11-11T09:02:51.218Z,18.84
2016-11-11T09:03:59.908Z,18.81
2016-11-11T09:05:09.218Z,18.85
2016-11-11T09:06:18.331Z,18.87
2016-11-11T09:07:27.395Z,18.78
2016-11-11T09:08:36.083Z,18.76
2016-11-11T09:09:45.114Z,18.81
2016-11-11T09:10:55.036Z,18.78
2016-11-11T09:12:04.999Z,18.81
2016-11-11T09:13:14.298Z,18.76
2016-11-11T09:14:22.987Z,18.73
2016-11-11T09:15:31.988Z,18.7
2016-11-11T09:16:41.001Z,18.78
2016-11-11T09:17:50.032Z,18.69
2016-11-11T09:18:59.334Z,18.62
2016-11-11T09:20:08.637Z,18.66
2016-11-11T09:21:17.963Z,18.66
2016-11-11T09:22:27.281Z,18.67
2016-11-11T09:23:36.065Z,18.67
2016-11-11T09:24:45.369Z,18.66
2016-11-11T09:25:54.976Z,18.67
2016-11-11T09:27:03.713Z,18.65
2016-11-11T09:28:12.747Z,18.76
2016-11-11T09:29:21.736Z,18.67
2016-11-11T09:30:30.756Z,18.65
2016-11-11T09:31:39.771Z,18.57
2016-11-11T09:32:48.466Z,18.55
2016-11-11T09:33:57.481Z,18.57
2016-11-11T09:35:07.112Z,18.57
2016-11-11T09:36:16.730Z,18.54
2016-11-11T09:37:25.725Z,18.54
2016-11-11T09:43:39.176Z,18.57
2016-11-11T09:47:20.845Z,18.55
2016-11-11T09:48:30.167Z,18.58
2016-11-11T09:49:39.290Z,18.52
2016-11-11T09:50:47.999Z,18.5
2016-11-11T09:51:56.703Z,18.47
2016-11-11T09:53:05.708Z,18.45
2016-11-11T09:54:14.725Z,18.44
2016-11-11T09:55:23.833Z,18.41
2016-11-11T09:56:33.442Z,18.47
2016-11-11T09:57:42.448Z,18.39
2016-11-11T09:58:51.453Z,18.47
2016-11-11T10:00:00.763Z,18.45
2016-11-11T10:01:10.107Z,18.44
2016-11-11T10:02:19.736Z,18.41
2016-11-11T10:03:28.447Z,18.44
2016-11-11T10:04:37.157Z,18.42
2016-11-11T10:05:46.173Z,18.45
2016-11-11T10:06:55.208Z,18.47
2016-11-11T10:08:04.523Z,18.45
2016-11-11T10:09:14.144Z,18.45
2016-11-11T10:10:22.843Z,18.47
2016-11-11T10:11:31.861Z,18.52
2016-11-11T10:12:40.862Z,18.37
2016-11-11T10:13:50.192Z,18.47
2016-11-11T10:14:59.187Z,18.44
2016-11-11T10:16:07.895Z,18.48
2016-11-11T10:17:17.553Z,18.44
2016-11-11T10:18:26.699Z,18.41
2016-11-11T10:19:35.707Z,18.39
2016-11-11T10:20:44.420Z,18.42
2016-11-11T10:21:53.732Z,18.41
2016-11-11T10:23:02.761Z,18.42
2016-11-11T10:24:12.075Z,18.33
2016-11-11T10:25:20.797Z,18.35
2016-11-11T10:26:30.459Z,18.39
2016-11-11T10:27:39.154Z,18.39
2016-11-11T10:28:48.472Z,18.33
2016-11-11T10:29:57.187Z,18.35
2016-11-11T10:31:06.178Z,18.35
2016-11-11T10:32:15.489Z,18.32
2016-11-11T10:33:24.793Z,18.35
2016-11-11T10:34:33.498Z,18.37
2016-11-11T10:35:42.496Z,18.35
2016-11-11T10:36:51.823Z,18.36
2016-11-11T10:38:01.158Z,18.36
2016-11-11T10:39:10.809Z,18.26
2016-11-11T10:40:19.511Z,18.35
2016-11-11T10:41:28.632Z,18.29
2016-11-11T10:42:37.631Z,18.33
2016-11-11T10:43:47.244Z,18.32
2016-11-11T10:44:55.933Z,18.3
2016-11-11T10:46:04.941Z,18.27
2016-11-11T10:47:14.247Z,18.29
2016-11-11T10:48:23.248Z,18.21
2016-11-11T10:49:32.285Z,18.18
2016-11-11T10:50:41.287Z,18.26
2016-11-11T10:51:50.321Z,18.23
2016-11-11T10:52:59.325Z,18.23
2016-11-11T10:54:08.027Z,18.27
2016-11-11T10:55:17.343Z,18.26
2016-11-11T10:56:26.356Z,18.32
2016-11-11T10:57:35.056Z,18.23
2016-11-11T10:58:44.974Z,18.21
2016-11-11T10:59:54.266Z,18.27
2016-11-11T11:01:02.968Z,18.26
2016-11-11T11:02:11.978Z,18.32
2016-11-11T11:03:20.983Z,18.23
2016-11-11T11:04:29.727Z,18.25
2016-11-11T11:05:38.421Z,18.2
2016-11-11T11:06:47.735Z,18.21
2016-11-11T11:07:56.747Z,18.23
2016-11-11T11:09:06.379Z,18.26
2016-11-11T11:10:16.300Z,18.2
2016-11-11T11:11:25.613Z,18.29
2016-11-11T11:12:34.921Z,18.27
2016-11-11T11:13:44.537Z,18.23
2016-11-11T11:14:53.838Z,18.18
2016-11-11T11:16:03.491Z,18.15
2016-11-11T11:17:12.803Z,18.17
2016-11-11T11:18:21.494Z,18.21
2016-11-11T11:19:30.534Z,18.07
2016-11-11T11:20:39.561Z,18.21
2016-11-11T11:21:48.271Z,18.12
2016-11-11T11:22:57.270Z,18.2
2016-11-11T11:24:06.583Z,18.14
2016-11-11T11:25:15.285Z,18.11
2016-11-11T11:26:24.595Z,18.23
2016-11-11T11:27:33.595Z,18.2
2016-11-11T11:28:42.601Z,18.1
2016-11-11T11:29:52.228Z,18.08
2016-11-11T11:31:01.234Z,18.18
2016-11-11T11:32:09.936Z,18.12
2016-11-11T11:33:18.664Z,18.12
2016-11-11T11:34:27.671Z,18.11
2016-11-11T11:35:36.686Z,18.2
2016-11-11T11:36:45.384Z,18.23
2016-11-11T11:37:55.330Z,18.17
2016-11-11T11:39:04.940Z,18.07
2016-11-11T11:40:13.950Z,18.2
2016-11-11T11:41:22.645Z,18.11
2016-11-11T11:42:31.936Z,18.07
2016-11-11T11:43:40.943Z,18.18
2016-11-11T11:44:50.295Z,18.18
2016-11-11T11:45:59.320Z,18.14
2016-11-11T11:47:08.335Z,18.11
2016-11-11T11:48:17.654Z,18.08
2016-11-11T11:49:27.264Z,18.08
2016-11-11T11:50:36.675Z,18.11
2016-11-11T11:51:45.691Z,18.17
2016-11-11T11:52:54.691Z,18.07
2016-11-11T11:54:03.996Z,18.11
2016-11-11T11:55:13.002Z,18.18
2016-11-11T11:56:22.416Z,18.08
2016-11-11T11:57:31.106Z,18.08
2016-11-11T11:58:39.804Z,18.23
2016-11-11T11:59:48.808Z,18.2
2016-11-11T12:00:57.536Z,18.08
2016-11-11T12:02:07.153Z,18.08
2016-11-11T12:03:15.904Z,18.1
2016-11-11T12:04:24.633Z,18.08
2016-11-11T12:05:33.977Z,18.05
2016-11-11T12:06:42.705Z,18.14
2016-11-11T12:07:52.575Z,18.05
2016-11-11T12:09:01.320Z,18
2016-11-11T12:10:10.949Z,18.08
2016-11-11T12:11:19.957Z,18.1
2016-11-11T12:12:29.277Z,18.05
2016-11-11T12:13:38.724Z,17.99
2016-11-11T12:14:47.792Z,18.03
2016-11-11T12:15:56.502Z,18
2016-11-11T12:17:05.916Z,18.07
2016-11-11T12:18:14.943Z,18.05
2016-11-11T12:19:23.743Z,18.08
2016-11-11T12:20:32.449Z,18.05
2016-11-11T12:21:41.460Z,17.99
2016-11-11T12:22:50.779Z,18
2016-11-11T12:24:00.429Z,18.03
2016-11-11T12:25:09.161Z,17.97
2016-11-11T12:26:18.495Z,18.02
2016-11-11T12:27:27.847Z,17.96
2016-11-11T12:28:36.866Z,17.93
2016-11-11T12:29:45.888Z,18.03
2016-11-11T12:30:54.920Z,18.03
2016-11-11T12:32:04.261Z,18
2016-11-11T12:33:13.586Z,17.95
2016-11-11T12:34:22.594Z,17.9
2016-11-11T12:35:31.292Z,18.02
2016-11-11T12:36:40.396Z,17.99
2016-11-11T12:37:49.396Z,18.03
2016-11-11T12:38:58.097Z,17.92
2016-11-11T12:40:07.132Z,17.99
2016-11-11T12:41:16.152Z,17.99
2016-11-11T12:42:25.177Z,17.96
2016-11-11T12:43:33.868Z,17.99
2016-11-11T12:44:43.191Z,17.96
2016-11-11T12:45:52.202Z,17.99
2016-11-11T12:47:01.539Z,18
2016-11-11T12:48:10.638Z,18
2016-11-11T12:49:19.336Z,17.97
2016-11-11T12:50:28.646Z,17.99
2016-11-11T12:51:37.690Z,17.96
2016-11-11T12:52:46.726Z,17.96
2016-11-11T12:53:55.912Z,17.89
2016-11-11T12:55:04.620Z,17.99
2016-11-11T12:56:13.629Z,17.93
2016-11-11T12:57:22.324Z,17.93
2016-11-11T12:58:31.633Z,17.86
2016-11-11T12:59:40.961Z,18.02
2016-11-11T13:00:49.957Z,18
2016-11-11T13:01:58.961Z,17.95
2016-11-11T13:03:07.975Z,18.05
2016-11-11T13:04:17.296Z,18.02
2016-11-11T13:05:26.926Z,17.86
2016-11-11T13:06:35.924Z,17.97
2016-11-11T13:07:45.247Z,17.96
2016-11-11T13:08:53.940Z,17.97
2016-11-11T13:10:02.947Z,17.9
2016-11-11T13:11:11.635Z,17.87
2016-11-11T13:12:20.942Z,17.89
2016-11-11T13:13:29.658Z,17.96
2016-11-11T13:14:38.668Z,17.9
2016-11-11T13:15:48.295Z,17.9
2016-11-11T13:16:57.314Z,17.84
2016-11-11T13:18:06.335Z,17.95
2016-11-11T13:19:15.349Z,18.03
2016-11-11T13:20:24.677Z,17.93
2016-11-11T13:21:33.693Z,17.92
2016-11-11T13:22:43.020Z,18
2016-11-11T13:23:52.365Z,18.03
2016-11-11T13:25:01.381Z,18.02
2016-11-11T13:26:10.091Z,18.07
2016-11-11T13:27:19.407Z,17.9
2016-11-11T13:28:29.073Z,17.96
2016-11-11T13:29:38.121Z,17.87
2016-11-11T13:30:47.137Z,18.02
2016-11-11T13:31:55.855Z,17.89
2016-11-11T13:33:04.875Z,17.92
2016-11-11T13:34:13.897Z,17.87
2016-11-11T13:35:23.223Z,17.86
2016-11-11T13:36:31.919Z,17.86
2016-11-11T13:37:41.245Z,17.9
2016-11-11T13:38:50.286Z,17.97
2016-11-11T13:40:00.205Z,17.95
2016-11-11T13:41:09.528Z,17.9
2016-11-11T13:42:18.546Z,17.84
2016-11-11T13:43:27.879Z,17.87
2016-11-11T13:44:37.226Z,17.86
2016-11-11T13:45:46.069Z,17.82
2016-11-11T13:46:55.385Z,17.95
2016-11-11T13:48:04.117Z,17.97
2016-11-11T13:49:13.132Z,17.87
2016-11-11T13:50:21.842Z,17.9
2016-11-11T13:51:30.860Z,17.95
2016-11-11T13:52:39.862Z,17.84
2016-11-11T13:53:49.185Z,17.9
2016-11-11T13:54:58.511Z,17.82
2016-11-11T13:56:07.588Z,17.93
2016-11-11T13:57:16.606Z,17.95
2016-11-11T13:58:25.628Z,17.86
2016-11-11T13:59:34.325Z,17.95
2016-11-11T14:00:43.333Z,17.87
2016-11-11T14:01:52.348Z,17.81
2016-11-11T14:03:01.747Z,17.82
2016-11-11T14:04:10.775Z,17.87
2016-11-11T14:05:20.716Z,17.84
2016-11-11T14:06:29.718Z,17.82
2016-11-11T14:07:39.040Z,17.86
2016-11-11T14:08:48.466Z,17.81
2016-11-11T14:09:57.549Z,17.9
2016-11-11T14:11:06.550Z,17.89
2016-11-11T14:12:15.895Z,17.81
2016-11-11T14:13:24.898Z,17.89
2016-11-11T14:14:34.525Z,17.89
2016-11-11T14:15:43.420Z,17.95
2016-11-11T14:16:52.128Z,17.95
2016-11-11T14:18:01.460Z,17.87
2016-11-11T14:19:10.460Z,17.74
2016-11-11T14:20:20.077Z,17.75
2016-11-11T14:21:29.401Z,17.82
2016-11-11T14:22:38.445Z,17.82
2016-11-11T14:23:48.086Z,17.9
2016-11-11T14:24:57.097Z,17.84
2016-11-11T14:26:06.099Z,17.78
2016-11-11T14:27:15.404Z,17.87
2016-11-11T14:28:24.437Z,17.89
2016-11-11T14:29:33.758Z,17.78
2016-11-11T14:30:43.066Z,17.89
2016-11-11T14:31:52.744Z,17.72
2016-11-11T14:33:01.765Z,17.82
2016-11-11T14:34:10.778Z,17.78
2016-11-11T14:35:19.484Z,17.78
2016-11-11T14:36:28.505Z,17.82
2016-11-11T14:37:37.506Z,17.74
2016-11-11T14:38:46.196Z,17.75
2016-11-11T14:39:55.553Z,17.79
2016-11-11T14:41:04.573Z,17.82
2016-11-11T14:42:13.920Z,17.78
2016-11-11T14:43:23.023Z,17.81
2016-11-11T14:44:32.660Z,17.75
2016-11-11T14:45:41.667Z,17.75
2016-11-11T14:46:50.447Z,17.78
2016-11-11T14:47:59.770Z,17.79
2016-11-11T14:49:09.094Z,17.81
2016-11-11T14:50:18.101Z,17.89
2016-11-11T14:51:27.100Z,17.77
2016-11-11T14:52:36.393Z,17.79
2016-11-11T14:53:45.112Z,17.75
2016-11-11T14:57:27.091Z,17.75
2016-11-11T14:58:35.803Z,17.79
2016-11-11T14:59:44.493Z,17.77
2016-11-11T15:00:53.501Z,17.75
2016-11-11T15:02:02.546Z,17.74
2016-11-11T15:03:11.876Z,17.75
2016-11-11T15:04:21.191Z,17.72
2016-11-11T15:05:30.512Z,17.77
2016-11-11T15:06:39.203Z,17.74
2016-11-11T15:07:47.880Z,17.74
2016-11-11T15:08:56.883Z,17.74